sensor_id;sensor_type;location;lat;lon;timestamp;pressure;altitude;pressure_sealevel;temperature;humidity
77450;BME280;66536;53.150;18.172;2023-11-19T00:01:58;101989.63;;;-0.24;91.17
77450;BME280;66536;53.150;18.172;2023-11-19T00:04:25;101986.81;;;-0.30;91.32
77450;BME280;66536;53.150;18.172;2023-11-19T00:06:51;101984.88;;;-0.36;91.44
77450;BME280;66536;53.150;18.172;2023-11-19T00:09:18;101981.36;;;-0.42;91.52
77450;BME280;66536;53.150;18.172;2023-11-19T00:11:45;101977.30;;;-0.47;91.70
77450;BME280;66536;53.150;18.172;2023-11-19T00:14:12;101973.06;;;-0.52;91.93
77450;BME280;66536;53.150;18.172;2023-11-19T00:16:40;101968.48;;;-0.57;91.92
77450;BME280;66536;53.150;18.172;2023-11-19T00:19:06;101964.05;;;-0.61;92.06
77450;BME280;66536;53.150;18.172;2023-11-19T00:21:35;101963.30;;;-0.65;92.19
77450;BME280;66536;53.150;18.172;2023-11-19T00:24:03;101959.45;;;-0.68;92.25
77450;BME280;66536;53.150;18.172;2023-11-19T00:26:30;101957.29;;;-0.71;92.30
77450;BME280;66536;53.150;18.172;2023-11-19T00:28:58;101956.50;;;-0.75;92.44
77450;BME280;66536;53.150;18.172;2023-11-19T00:31:25;101958.92;;;-0.78;92.48
77450;BME280;66536;53.150;18.172;2023-11-19T00:33:54;101961.86;;;-0.81;92.63
77450;BME280;66536;53.150;18.172;2023-11-19T00:36:23;101957.23;;;-0.83;92.73
77450;BME280;66536;53.150;18.172;2023-11-19T00:38:51;101954.13;;;-0.85;92.78
77450;BME280;66536;53.150;18.172;2023-11-19T00:41:19;101954.29;;;-0.87;92.88
77450;BME280;66536;53.150;18.172;2023-11-19T00:43:46;101947.52;;;-0.90;92.76
77450;BME280;66536;53.150;18.172;2023-11-19T00:46:13;101941.30;;;-0.93;92.91
77450;BME280;66536;53.150;18.172;2023-11-19T00:48:40;101938.77;;;-0.96;92.90
77450;BME280;66536;53.150;18.172;2023-11-19T00:51:07;101937.69;;;-1.00;93.03
77450;BME280;66536;53.150;18.172;2023-11-19T00:53:34;101930.24;;;-1.03;93.02
77450;BME280;66536;53.150;18.172;2023-11-19T00:56:01;101921.55;;;-1.07;93.05
77450;BME280;66536;53.150;18.172;2023-11-19T00:58:28;101913.23;;;-1.09;93.10
77450;BME280;66536;53.150;18.172;2023-11-19T01:00:56;101906.74;;;-1.13;93.19
77450;BME280;66536;53.150;18.172;2023-11-19T01:03:23;101905.66;;;-1.18;93.20
77450;BME280;66536;53.150;18.172;2023-11-19T01:05:50;101898.33;;;-1.22;93.34
77450;BME280;66536;53.150;18.172;2023-11-19T01:08:18;101897.06;;;-1.26;93.43
77450;BME280;66536;53.150;18.172;2023-11-19T01:10:45;101895.98;;;-1.30;93.49
77450;BME280;66536;53.150;18.172;2023-11-19T01:13:12;101895.39;;;-1.34;93.60
77450;BME280;66536;53.150;18.172;2023-11-19T01:15:39;101899.67;;;-1.37;93.57
77450;BME280;66536;53.150;18.172;2023-11-19T01:18:08;101900.58;;;-1.40;93.78
77450;BME280;66536;53.150;18.172;2023-11-19T01:20:36;101890.68;;;-1.42;93.90
77450;BME280;66536;53.150;18.172;2023-11-19T01:23:03;101884.65;;;-1.43;94.04
77450;BME280;66536;53.150;18.172;2023-11-19T01:25:30;101877.61;;;-1.44;94.14
77450;BME280;66536;53.150;18.172;2023-11-19T01:27:56;101871.05;;;-1.44;94.15
77450;BME280;66536;53.150;18.172;2023-11-19T01:30:24;101870.74;;;-1.45;94.25
77450;BME280;66536;53.150;18.172;2023-11-19T01:32:52;101877.98;;;-1.44;94.35
77450;BME280;66536;53.150;18.172;2023-11-19T01:35:19;101873.05;;;-1.44;94.48
77450;BME280;66536;53.150;18.172;2023-11-19T01:37:45;101870.92;;;-1.43;94.50
77450;BME280;66536;53.150;18.172;2023-11-19T01:40:12;101875.66;;;-1.42;94.47
77450;BME280;66536;53.150;18.172;2023-11-19T01:42:39;101877.48;;;-1.42;94.54
77450;BME280;66536;53.150;18.172;2023-11-19T01:45:07;101868.34;;;-1.41;94.59
77450;BME280;66536;53.150;18.172;2023-11-19T01:47:36;101856.33;;;-1.42;94.70
77450;BME280;66536;53.150;18.172;2023-11-19T01:50:03;101853.80;;;-1.42;94.72
77450;BME280;66536;53.150;18.172;2023-11-19T01:52:34;101838.76;;;-1.42;94.69
77450;BME280;66536;53.150;18.172;2023-11-19T01:55:04;101824.92;;;-1.43;94.82
77450;BME280;66536;53.150;18.172;2023-11-19T01:57:31;101819.73;;;-1.44;94.78
77450;BME280;66536;53.150;18.172;2023-11-19T01:59:58;101813.05;;;-1.45;94.77
77450;BME280;66536;53.150;18.172;2023-11-19T02:02:25;101804.52;;;-1.46;94.82
77450;BME280;66536;53.150;18.172;2023-11-19T02:04:52;101797.66;;;-1.48;94.90
77450;BME280;66536;53.150;18.172;2023-11-19T02:07:20;101795.03;;;-1.49;94.75
77450;BME280;66536;53.150;18.172;2023-11-19T02:09:46;101794.52;;;-1.51;94.74
77450;BME280;66536;53.150;18.172;2023-11-19T02:12:13;101789.13;;;-1.54;94.73
77450;BME280;66536;53.150;18.172;2023-11-19T02:14:40;101786.21;;;-1.56;94.74
77450;BME280;66536;53.150;18.172;2023-11-19T02:17:25;101783.65;;;-1.58;94.77
77450;BME280;66536;53.150;18.172;2023-11-19T02:19:53;101778.53;;;-1.60;94.80
77450;BME280;66536;53.150;18.172;2023-11-19T02:22:20;101780.52;;;-1.62;94.88
77450;BME280;66536;53.150;18.172;2023-11-19T02:24:49;101781.55;;;-1.65;94.89
77450;BME280;66536;53.150;18.172;2023-11-19T02:27:29;101776.05;;;-1.66;95.09
77450;BME280;66536;53.150;18.172;2023-11-19T02:29:59;101769.86;;;-1.67;95.07
77450;BME280;66536;53.150;18.172;2023-11-19T02:32:27;101761.93;;;-1.67;95.14
77450;BME280;66536;53.150;18.172;2023-11-19T02:34:55;101747.70;;;-1.67;95.16
77450;BME280;66536;53.150;18.172;2023-11-19T02:37:22;101741.66;;;-1.65;95.25
77450;BME280;66536;53.150;18.172;2023-11-19T02:39:49;101741.81;;;-1.63;95.39
77450;BME280;66536;53.150;18.172;2023-11-19T02:42:16;101743.89;;;-1.58;95.38
77450;BME280;66536;53.150;18.172;2023-11-19T02:44:44;101739.89;;;-1.54;95.41
77450;BME280;66536;53.150;18.172;2023-11-19T02:47:12;101730.71;;;-1.49;95.37
77450;BME280;66536;53.150;18.172;2023-11-19T02:49:38;101721.92;;;-1.44;95.28
77450;BME280;66536;53.150;18.172;2023-11-19T02:52:06;101714.41;;;-1.38;95.29
77450;BME280;66536;53.150;18.172;2023-11-19T02:54:34;101709.58;;;-1.32;95.22
77450;BME280;66536;53.150;18.172;2023-11-19T02:57:01;101709.56;;;-1.27;95.08
77450;BME280;66536;53.150;18.172;2023-11-19T02:59:29;101705.51;;;-1.19;95.00
77450;BME280;66536;53.150;18.172;2023-11-19T03:02:05;101702.75;;;-1.14;94.69
77450;BME280;66536;53.150;18.172;2023-11-19T03:04:34;101699.27;;;-1.08;94.65
77450;BME280;66536;53.150;18.172;2023-11-19T03:07:01;101690.17;;;-1.01;94.68
77450;BME280;66536;53.150;18.172;2023-11-19T03:09:28;101680.35;;;-0.94;94.59
77450;BME280;66536;53.150;18.172;2023-11-19T03:11:56;101675.27;;;-0.89;94.33
77450;BME280;66536;53.150;18.172;2023-11-19T03:14:22;101671.98;;;-0.84;94.34
77450;BME280;66536;53.150;18.172;2023-11-19T03:16:50;101675.60;;;-0.80;94.20
77450;BME280;66536;53.150;18.172;2023-11-19T03:19:17;101675.15;;;-0.76;94.04
77450;BME280;66536;53.150;18.172;2023-11-19T03:21:44;101670.20;;;-0.73;93.98
77450;BME280;66536;53.150;18.172;2023-11-19T03:24:14;101664.61;;;-0.71;94.02
77450;BME280;66536;53.150;18.172;2023-11-19T03:26:41;101657.14;;;-0.68;93.96
77450;BME280;66536;53.150;18.172;2023-11-19T03:29:09;101650.21;;;-0.68;93.72
77450;BME280;66536;53.150;18.172;2023-11-19T03:31:36;101641.48;;;-0.67;93.80
77450;BME280;66536;53.150;18.172;2023-11-19T03:34:03;101630.35;;;-0.65;93.81
77450;BME280;66536;53.150;18.172;2023-11-19T03:36:33;101617.64;;;-0.63;93.84
77450;BME280;66536;53.150;18.172;2023-11-19T03:39:00;101610.39;;;-0.61;93.66
77450;BME280;66536;53.150;18.172;2023-11-19T03:41:27;101603.41;;;-0.59;93.60
77450;BME280;66536;53.150;18.172;2023-11-19T03:43:53;101592.63;;;-0.59;93.42
77450;BME280;66536;53.150;18.172;2023-11-19T03:46:20;101588.52;;;-0.59;93.33
77450;BME280;66536;53.150;18.172;2023-11-19T03:48:48;101586.45;;;-0.58;93.43
77450;BME280;66536;53.150;18.172;2023-11-19T03:51:16;101580.09;;;-0.57;93.33
77450;BME280;66536;53.150;18.172;2023-11-19T03:53:45;101581.61;;;-0.57;93.32
77450;BME280;66536;53.150;18.172;2023-11-19T03:56:12;101581.67;;;-0.56;93.24
77450;BME280;66536;53.150;18.172;2023-11-19T03:58:39;101579.15;;;-0.54;93.19
77450;BME280;66536;53.150;18.172;2023-11-19T04:01:11;101575.88;;;-0.51;93.28
77450;BME280;66536;53.150;18.172;2023-11-19T04:03:39;101579.52;;;-0.47;93.16
77450;BME280;66536;53.150;18.172;2023-11-19T04:06:06;101576.27;;;-0.45;92.98
77450;BME280;66536;53.150;18.172;2023-11-19T04:08:33;101569.99;;;-0.42;93.02
77450;BME280;66536;53.150;18.172;2023-11-19T04:11:03;101565.96;;;-0.39;93.07
77450;BME280;66536;53.150;18.172;2023-11-19T04:13:30;101564.48;;;-0.35;92.96
77450;BME280;66536;53.150;18.172;2023-11-19T04:15:57;101559.29;;;-0.33;92.83
77450;BME280;66536;53.150;18.172;2023-11-19T04:18:23;101558.79;;;-0.33;92.84
77450;BME280;66536;53.150;18.172;2023-11-19T04:20:51;101559.04;;;-0.32;92.71
77450;BME280;66536;53.150;18.172;2023-11-19T04:23:17;101555.80;;;-0.34;92.64
77450;BME280;66536;53.150;18.172;2023-11-19T04:25:44;101548.18;;;-0.34;92.61
77450;BME280;66536;53.150;18.172;2023-11-19T04:28:11;101541.91;;;-0.34;92.63
77450;BME280;66536;53.150;18.172;2023-11-19T04:30:38;101533.64;;;-0.32;92.70
77450;BME280;66536;53.150;18.172;2023-11-19T04:33:04;101521.89;;;-0.30;92.77
77450;BME280;66536;53.150;18.172;2023-11-19T04:35:32;101520.45;;;-0.26;92.75
77450;BME280;66536;53.150;18.172;2023-11-19T04:37:59;101522.08;;;-0.25;92.61
77450;BME280;66536;53.150;18.172;2023-11-19T04:40:25;101520.48;;;-0.22;92.72
77450;BME280;66536;53.150;18.172;2023-11-19T04:42:52;101522.79;;;-0.19;92.61
77450;BME280;66536;53.150;18.172;2023-11-19T04:45:19;101516.82;;;-0.17;92.58
77450;BME280;66536;53.150;18.172;2023-11-19T04:47:46;101512.59;;;-0.12;92.50
77450;BME280;66536;53.150;18.172;2023-11-19T04:50:13;101500.75;;;-0.10;92.44
77450;BME280;66536;53.150;18.172;2023-11-19T04:52:40;101498.31;;;-0.08;92.46
77450;BME280;66536;53.150;18.172;2023-11-19T04:55:07;101487.64;;;-0.06;92.40
77450;BME280;66536;53.150;18.172;2023-11-19T04:57:34;101483.89;;;-0.05;92.23
77450;BME280;66536;53.150;18.172;2023-11-19T05:00:00;101477.96;;;-0.08;92.14
77450;BME280;66536;53.150;18.172;2023-11-19T05:02:28;101473.21;;;-0.10;92.30
77450;BME280;66536;53.150;18.172;2023-11-19T05:04:54;101466.87;;;-0.11;92.32
77450;BME280;66536;53.150;18.172;2023-11-19T05:07:21;101462.08;;;-0.13;92.35
77450;BME280;66536;53.150;18.172;2023-11-19T05:09:48;101458.42;;;-0.14;92.27
77450;BME280;66536;53.150;18.172;2023-11-19T05:12:15;101453.45;;;-0.13;92.33
77450;BME280;66536;53.150;18.172;2023-11-19T05:14:41;101444.85;;;-0.14;92.27
77450;BME280;66536;53.150;18.172;2023-11-19T05:17:17;101436.24;;;-0.12;92.44
77450;BME280;66536;53.150;18.172;2023-11-19T05:19:45;101430.70;;;-0.11;92.37
77450;BME280;66536;53.150;18.172;2023-11-19T05:22:13;101431.13;;;-0.07;92.51
77450;BME280;66536;53.150;18.172;2023-11-19T05:24:40;101429.45;;;-0.03;92.42
77450;BME280;66536;53.150;18.172;2023-11-19T05:27:07;101427.20;;;-0.01;92.37
77450;BME280;66536;53.150;18.172;2023-11-19T05:29:34;101421.61;;;0.04;92.50
77450;BME280;66536;53.150;18.172;2023-11-19T05:32:01;101413.37;;;0.07;92.31
77450;BME280;66536;53.150;18.172;2023-11-19T05:34:28;101409.88;;;0.08;92.33
77450;BME280;66536;53.150;18.172;2023-11-19T05:36:55;101405.97;;;0.09;92.34
77450;BME280;66536;53.150;18.172;2023-11-19T05:39:22;101401.23;;;0.11;92.26
77450;BME280;66536;53.150;18.172;2023-11-19T05:41:49;101398.00;;;0.11;92.22
77450;BME280;66536;53.150;18.172;2023-11-19T05:44:17;101401.05;;;0.11;92.23
77450;BME280;66536;53.150;18.172;2023-11-19T05:46:45;101399.45;;;0.14;92.26
77450;BME280;66536;53.150;18.172;2023-11-19T05:49:12;101394.48;;;0.16;92.37
77450;BME280;66536;53.150;18.172;2023-11-19T05:51:40;101392.27;;;0.21;92.37
77450;BME280;66536;53.150;18.172;2023-11-19T05:54:09;101389.83;;;0.23;92.22
77450;BME280;66536;53.150;18.172;2023-11-19T05:56:37;101388.38;;;0.24;92.15
77450;BME280;66536;53.150;18.172;2023-11-19T05:59:04;101388.77;;;0.26;92.11
77450;BME280;66536;53.150;18.172;2023-11-19T06:01:34;101380.92;;;0.29;92.31
77450;BME280;66536;53.150;18.172;2023-11-19T06:04:01;101378.20;;;0.31;92.13
77450;BME280;66536;53.150;18.172;2023-11-19T06:06:28;101375.83;;;0.33;92.04
77450;BME280;66536;53.150;18.172;2023-11-19T06:08:55;101371.54;;;0.36;91.96
77450;BME280;66536;53.150;18.172;2023-11-19T06:11:22;101372.63;;;0.39;92.04
77450;BME280;66536;53.150;18.172;2023-11-19T06:13:49;101373.00;;;0.40;91.90
77450;BME280;66536;53.150;18.172;2023-11-19T06:16:17;101364.17;;;0.40;91.58
77450;BME280;66536;53.150;18.172;2023-11-19T06:18:44;101357.88;;;0.41;91.65
77450;BME280;66536;53.150;18.172;2023-11-19T06:21:12;101351.77;;;0.43;91.76
77450;BME280;66536;53.150;18.172;2023-11-19T06:23:39;101344.38;;;0.43;91.67
77450;BME280;66536;53.150;18.172;2023-11-19T06:26:05;101341.86;;;0.46;91.70
77450;BME280;66536;53.150;18.172;2023-11-19T06:28:32;101342.48;;;0.48;91.74
77450;BME280;66536;53.150;18.172;2023-11-19T06:30:59;101339.95;;;0.50;91.63
77450;BME280;66536;53.150;18.172;2023-11-19T06:33:25;101332.56;;;0.51;91.53
77450;BME280;66536;53.150;18.172;2023-11-19T06:35:53;101326.41;;;0.54;91.43
77450;BME280;66536;53.150;18.172;2023-11-19T06:38:21;101315.53;;;0.56;91.36
77450;BME280;66536;53.150;18.172;2023-11-19T06:40:47;101304.13;;;0.58;91.30
77450;BME280;66536;53.150;18.172;2023-11-19T06:43:14;101291.58;;;0.58;91.08
77450;BME280;66536;53.150;18.172;2023-11-19T06:45:42;101287.65;;;0.58;91.20
77450;BME280;66536;53.150;18.172;2023-11-19T06:48:08;101289.15;;;0.59;91.06
77450;BME280;66536;53.150;18.172;2023-11-19T06:50:35;101290.95;;;0.59;91.13
77450;BME280;66536;53.150;18.172;2023-11-19T06:53:02;101290.60;;;0.59;90.98
77450;BME280;66536;53.150;18.172;2023-11-19T06:55:29;101289.48;;;0.63;91.08
77450;BME280;66536;53.150;18.172;2023-11-19T06:57:55;101279.69;;;0.66;90.88
77450;BME280;66536;53.150;18.172;2023-11-19T07:00:23;101278.94;;;0.69;90.91
77450;BME280;66536;53.150;18.172;2023-11-19T07:02:49;101270.71;;;0.74;90.91
77450;BME280;66536;53.150;18.172;2023-11-19T07:05:17;101267.11;;;0.78;90.81
77450;BME280;66536;53.150;18.172;2023-11-19T07:07:44;101263.80;;;0.83;90.75
77450;BME280;66536;53.150;18.172;2023-11-19T07:10:13;101260.48;;;0.88;90.73
77450;BME280;66536;53.150;18.172;2023-11-19T07:12:40;101257.98;;;0.93;90.55
77450;BME280;66536;53.150;18.172;2023-11-19T07:15:07;101251.86;;;0.97;90.40
77450;BME280;66536;53.150;18.172;2023-11-19T07:17:35;101248.01;;;1.01;90.34
77450;BME280;66536;53.150;18.172;2023-11-19T07:20:03;101245.52;;;1.04;90.19
77450;BME280;66536;53.150;18.172;2023-11-19T07:22:30;101248.00;;;1.09;90.25
77450;BME280;66536;53.150;18.172;2023-11-19T07:24:57;101240.90;;;1.11;90.08
77450;BME280;66536;53.150;18.172;2023-11-19T07:27:24;101237.96;;;1.11;90.06
77450;BME280;66536;53.150;18.172;2023-11-19T07:29:51;101235.05;;;1.12;89.88
77450;BME280;66536;53.150;18.172;2023-11-19T07:32:18;101235.95;;;1.13;89.96
77450;BME280;66536;53.150;18.172;2023-11-19T07:34:47;101237.81;;;1.17;90.30
77450;BME280;66536;53.150;18.172;2023-11-19T07:37:14;101231.60;;;1.22;90.15
77450;BME280;66536;53.150;18.172;2023-11-19T07:39:40;101225.02;;;1.25;89.95
77450;BME280;66536;53.150;18.172;2023-11-19T07:42:07;101219.40;;;1.27;89.88
77450;BME280;66536;53.150;18.172;2023-11-19T07:44:35;101216.41;;;1.32;89.92
77450;BME280;66536;53.150;18.172;2023-11-19T07:47:03;101212.32;;;1.32;89.54
77450;BME280;66536;53.150;18.172;2023-11-19T07:49:31;101208.50;;;1.31;89.38
77450;BME280;66536;53.150;18.172;2023-11-19T07:51:58;101210.16;;;1.30;89.45
77450;BME280;66536;53.150;18.172;2023-11-19T07:54:25;101207.80;;;1.32;89.56
77450;BME280;66536;53.150;18.172;2023-11-19T07:56:51;101205.38;;;1.36;89.56
77450;BME280;66536;53.150;18.172;2023-11-19T07:59:18;101200.00;;;1.37;89.38
77450;BME280;66536;53.150;18.172;2023-11-19T08:01:45;101195.51;;;1.38;89.47
77450;BME280;66536;53.150;18.172;2023-11-19T08:04:12;101190.67;;;1.36;89.32
77450;BME280;66536;53.150;18.172;2023-11-19T08:06:39;101185.73;;;1.37;89.36
77450;BME280;66536;53.150;18.172;2023-11-19T08:09:06;101177.91;;;1.37;89.25
77450;BME280;66536;53.150;18.172;2023-11-19T08:11:33;101176.71;;;1.37;89.18
77450;BME280;66536;53.150;18.172;2023-11-19T08:14:00;101171.93;;;1.39;89.16
77450;BME280;66536;53.150;18.172;2023-11-19T08:16:27;101166.23;;;1.40;89.07
77450;BME280;66536;53.150;18.172;2023-11-19T08:18:53;101159.79;;;1.44;89.05
77450;BME280;66536;53.150;18.172;2023-11-19T08:21:20;101150.52;;;1.44;88.96
77450;BME280;66536;53.150;18.172;2023-11-19T08:23:49;101149.30;;;1.47;89.02
77450;BME280;66536;53.150;18.172;2023-11-19T08:26:16;101144.98;;;1.50;88.92
77450;BME280;66536;53.150;18.172;2023-11-19T08:28:42;101135.12;;;1.53;88.97
77450;BME280;66536;53.150;18.172;2023-11-19T08:31:09;101125.00;;;1.56;88.60
77450;BME280;66536;53.150;18.172;2023-11-19T08:33:36;101123.44;;;1.58;88.53
77450;BME280;66536;53.150;18.172;2023-11-19T08:36:03;101115.48;;;1.63;88.55
77450;BME280;66536;53.150;18.172;2023-11-19T08:38:30;101113.62;;;1.67;88.52
77450;BME280;66536;53.150;18.172;2023-11-19T08:40:57;101110.46;;;1.72;88.53
77450;BME280;66536;53.150;18.172;2023-11-19T08:43:27;101106.71;;;1.75;88.38
77450;BME280;66536;53.150;18.172;2023-11-19T08:45:54;101106.61;;;1.77;88.32
77450;BME280;66536;53.150;18.172;2023-11-19T08:48:20;101103.40;;;1.78;88.39
77450;BME280;66536;53.150;18.172;2023-11-19T08:50:47;101094.52;;;1.79;88.45
77450;BME280;66536;53.150;18.172;2023-11-19T08:53:14;101090.01;;;1.80;88.35
77450;BME280;66536;53.150;18.172;2023-11-19T08:55:41;101087.45;;;1.80;88.21
77450;BME280;66536;53.150;18.172;2023-11-19T08:58:09;101079.93;;;1.80;88.21
77450;BME280;66536;53.150;18.172;2023-11-19T09:00:35;101067.47;;;1.81;88.15
77450;BME280;66536;53.150;18.172;2023-11-19T09:03:02;101061.88;;;1.82;87.99
77450;BME280;66536;53.150;18.172;2023-11-19T09:05:29;101065.69;;;1.83;87.96
77450;BME280;66536;53.150;18.172;2023-11-19T09:07:56;101060.77;;;1.88;88.15
77450;BME280;66536;53.150;18.172;2023-11-19T09:10:23;101056.62;;;1.93;88.12
77450;BME280;66536;53.150;18.172;2023-11-19T09:12:50;101056.27;;;2.00;88.29
77450;BME280;66536;53.150;18.172;2023-11-19T09:15:16;101047.08;;;2.10;88.17
77450;BME280;66536;53.150;18.172;2023-11-19T09:17:43;101043.90;;;2.22;88.15
77450;BME280;66536;53.150;18.172;2023-11-19T09:20:12;101043.71;;;2.34;87.69
77450;BME280;66536;53.150;18.172;2023-11-19T09:22:43;101041.04;;;2.44;87.49
77450;BME280;66536;53.150;18.172;2023-11-19T09:25:10;101028.60;;;2.53;87.44
77450;BME280;66536;53.150;18.172;2023-11-19T09:27:37;101024.80;;;2.59;87.14
77450;BME280;66536;53.150;18.172;2023-11-19T09:30:04;101025.06;;;2.67;87.32
77450;BME280;66536;53.150;18.172;2023-11-19T09:32:31;101016.55;;;2.72;86.90
77450;BME280;66536;53.150;18.172;2023-11-19T09:34:58;101011.31;;;2.75;86.95
77450;BME280;66536;53.150;18.172;2023-11-19T09:37:25;101008.92;;;2.80;86.99
77450;BME280;66536;53.150;18.172;2023-11-19T09:39:52;101003.64;;;2.87;86.81
77450;BME280;66536;53.150;18.172;2023-11-19T09:42:19;100999.06;;;2.95;86.62
77450;BME280;66536;53.150;18.172;2023-11-19T09:44:47;100992.23;;;3.01;85.98
77450;BME280;66536;53.150;18.172;2023-11-19T09:47:17;100987.23;;;3.03;86.55
77450;BME280;66536;53.150;18.172;2023-11-19T09:49:46;100979.40;;;3.08;86.69
77450;BME280;66536;53.150;18.172;2023-11-19T09:52:14;100964.59;;;3.08;86.30
77450;BME280;66536;53.150;18.172;2023-11-19T09:54:40;100958.02;;;3.05;85.98
77450;BME280;66536;53.150;18.172;2023-11-19T09:57:07;100949.58;;;3.08;86.31
77450;BME280;66536;53.150;18.172;2023-11-19T09:59:37;100942.66;;;3.11;86.19
77450;BME280;66536;53.150;18.172;2023-11-19T10:02:06;100937.17;;;3.15;86.11
77450;BME280;66536;53.150;18.172;2023-11-19T10:04:34;100937.83;;;3.17;85.96
77450;BME280;66536;53.150;18.172;2023-11-19T10:07:03;100936.34;;;3.20;86.11
77450;BME280;66536;53.150;18.172;2023-11-19T10:09:30;100937.69;;;3.18;85.77
77450;BME280;66536;53.150;18.172;2023-11-19T10:11:57;100933.05;;;3.17;85.91
77450;BME280;66536;53.150;18.172;2023-11-19T10:14:24;100929.04;;;3.16;86.22
77450;BME280;66536;53.150;18.172;2023-11-19T10:16:50;100922.83;;;3.15;86.30
77450;BME280;66536;53.150;18.172;2023-11-19T10:19:19;100917.63;;;3.11;86.03
77450;BME280;66536;53.150;18.172;2023-11-19T10:21:48;100907.36;;;3.04;86.11
77450;BME280;66536;53.150;18.172;2023-11-19T10:24:14;100898.95;;;3.01;86.43
77450;BME280;66536;53.150;18.172;2023-11-19T10:26:41;100896.36;;;3.00;86.33
77450;BME280;66536;53.150;18.172;2023-11-19T10:29:12;100887.02;;;3.01;86.62
77450;BME280;66536;53.150;18.172;2023-11-19T10:31:40;100882.67;;;3.04;86.40
77450;BME280;66536;53.150;18.172;2023-11-19T10:34:24;100879.39;;;3.06;86.46
77450;BME280;66536;53.150;18.172;2023-11-19T10:36:51;100884.31;;;3.08;86.07
77450;BME280;66536;53.150;18.172;2023-11-19T10:39:18;100879.27;;;3.04;86.19
77450;BME280;66536;53.150;18.172;2023-11-19T10:41:45;100876.70;;;3.04;86.44
77450;BME280;66536;53.150;18.172;2023-11-19T10:44:12;100871.94;;;3.05;86.49
77450;BME280;66536;53.150;18.172;2023-11-19T10:46:40;100873.53;;;3.05;86.43
77450;BME280;66536;53.150;18.172;2023-11-19T10:49:08;100870.32;;;3.01;86.18
77450;BME280;66536;53.150;18.172;2023-11-19T10:51:35;100867.25;;;2.98;86.54
77450;BME280;66536;53.150;18.172;2023-11-19T10:54:04;100867.55;;;2.95;86.60
77450;BME280;66536;53.150;18.172;2023-11-19T10:56:33;100865.69;;;2.90;86.83
77450;BME280;66536;53.150;18.172;2023-11-19T10:59:00;100861.58;;;2.87;86.96
77450;BME280;66536;53.150;18.172;2023-11-19T11:01:34;100853.70;;;2.84;86.77
77450;BME280;66536;53.150;18.172;2023-11-19T11:04:14;100852.98;;;2.79;87.03
77450;BME280;66536;53.150;18.172;2023-11-19T11:06:42;100849.14;;;2.76;87.26
77450;BME280;66536;53.150;18.172;2023-11-19T11:09:10;100843.11;;;2.75;87.31
77450;BME280;66536;53.150;18.172;2023-11-19T11:11:40;100839.83;;;2.74;87.44
77450;BME280;66536;53.150;18.172;2023-11-19T11:14:12;100834.22;;;2.73;87.48
77450;BME280;66536;53.150;18.172;2023-11-19T11:16:43;100832.67;;;2.71;87.61
77450;BME280;66536;53.150;18.172;2023-11-19T11:19:11;100826.11;;;2.72;87.82
77450;BME280;66536;53.150;18.172;2023-11-19T11:21:42;100822.23;;;2.71;87.73
77450;BME280;66536;53.150;18.172;2023-11-19T11:27:08;100800.86;;;2.64;87.58
77450;BME280;66536;53.150;18.172;2023-11-19T11:29:48;100797.92;;;2.59;87.77
77450;BME280;66536;53.150;18.172;2023-11-19T11:35:24;100783.17;;;2.50;88.29
77450;BME280;66536;53.150;18.172;2023-11-19T11:38:02;100775.48;;;2.50;88.30
77450;BME280;66536;53.150;18.172;2023-11-19T11:40:30;100771.66;;;2.48;88.35
77450;BME280;66536;53.150;18.172;2023-11-19T11:42:57;100762.94;;;2.45;88.31
77450;BME280;66536;53.150;18.172;2023-11-19T11:45:35;100759.09;;;2.41;88.47
77450;BME280;66536;53.150;18.172;2023-11-19T11:48:15;100745.75;;;2.38;88.73
77450;BME280;66536;53.150;18.172;2023-11-19T11:50:51;100735.29;;;2.32;88.61
77450;BME280;66536;53.150;18.172;2023-11-19T11:53:20;100727.89;;;2.24;88.62
77450;BME280;66536;53.150;18.172;2023-11-19T11:55:54;100721.52;;;2.18;88.75
77450;BME280;66536;53.150;18.172;2023-11-19T11:58:28;100718.52;;;2.11;88.67
77450;BME280;66536;53.150;18.172;2023-11-19T12:00:58;100717.12;;;2.04;88.99
77450;BME280;66536;53.150;18.172;2023-11-19T12:03:28;100716.23;;;1.96;89.01
77450;BME280;66536;53.150;18.172;2023-11-19T12:05:57;100712.70;;;1.92;89.49
77450;BME280;66536;53.150;18.172;2023-11-19T12:08:26;100712.74;;;1.88;89.49
77450;BME280;66536;53.150;18.172;2023-11-19T12:10:56;100706.51;;;1.86;89.63
77450;BME280;66536;53.150;18.172;2023-11-19T12:13:47;100698.25;;;1.85;89.76
77450;BME280;66536;53.150;18.172;2023-11-19T12:16:16;100691.66;;;1.83;89.74
77450;BME280;66536;53.150;18.172;2023-11-19T12:18:42;100686.27;;;1.83;89.74
77450;BME280;66536;53.150;18.172;2023-11-19T12:21:09;100686.23;;;1.81;89.68
77450;BME280;66536;53.150;18.172;2023-11-19T12:23:44;100669.02;;;1.78;89.79
77450;BME280;66536;53.150;18.172;2023-11-19T12:26:31;100655.23;;;1.76;89.83
77450;BME280;66536;53.150;18.172;2023-11-19T12:28:59;100643.46;;;1.75;89.97
77450;BME280;66536;53.150;18.172;2023-11-19T12:31:26;100644.40;;;1.74;90.06
77450;BME280;66536;53.150;18.172;2023-11-19T12:33:53;100639.02;;;1.75;90.29
77450;BME280;66536;53.150;18.172;2023-11-19T12:36:20;100632.87;;;1.77;90.12
77450;BME280;66536;53.150;18.172;2023-11-19T12:38:47;100634.48;;;1.75;90.19
77450;BME280;66536;53.150;18.172;2023-11-19T12:41:14;100634.50;;;1.73;90.16
77450;BME280;66536;53.150;18.172;2023-11-19T12:43:47;100629.02;;;1.71;90.26
77450;BME280;66536;53.150;18.172;2023-11-19T12:46:19;100621.08;;;1.71;90.44
77450;BME280;66536;53.150;18.172;2023-11-19T12:48:47;100623.07;;;1.70;90.25
77450;BME280;66536;53.150;18.172;2023-11-19T12:51:15;100626.86;;;1.69;90.47
77450;BME280;66536;53.150;18.172;2023-11-19T12:53:51;100632.55;;;1.65;90.40
77450;BME280;66536;53.150;18.172;2023-11-19T12:56:24;100641.58;;;1.61;90.59